createdAt,value
2022-11-14T00:00:30.821Z,9.27
2022-11-14T00:03:35.377Z,9.21
2022-11-14T00:06:40.060Z,9.17
2022-11-14T00:09:44.828Z,9.19
2022-11-14T00:12:49.564Z,9.20
2022-11-14T00:15:54.507Z,9.17
2022-11-14T00:18:59.211Z,9.12
2022-11-14T00:22:03.710Z,9.15
2022-11-14T00:25:08.462Z,9.16
2022-11-14T00:28:13.449Z,9.15
2022-11-14T00:31:18.310Z,9.12
2022-11-14T00:34:23.333Z,9.14
2022-11-14T00:37:28.399Z,9.15
2022-11-14T00:40:33.043Z,9.13
2022-11-14T00:43:37.726Z,9.10
2022-11-14T00:46:42.647Z,9.05
2022-11-14T00:49:47.644Z,9.02
2022-11-14T00:52:52.411Z,9.05
2022-11-14T00:55:57.334Z,9.10
2022-11-14T00:59:01.873Z,9.07
2022-11-14T01:02:06.642Z,9.04
2022-11-14T01:05:11.149Z,9.04
2022-11-14T01:08:18.232Z,8.97
2022-11-14T01:11:23.553Z,8.97
2022-11-14T01:14:28.136Z,8.96
2022-11-14T01:17:32.843Z,8.87
2022-11-14T01:20:44.305Z,8.83
2022-11-14T01:23:49.134Z,8.76
2022-11-14T01:26:56.998Z,8.72
2022-11-14T01:30:01.700Z,8.78
2022-11-14T01:33:06.502Z,8.73
2022-11-14T01:36:11.351Z,8.76
2022-11-14T01:39:16.393Z,8.64
2022-11-14T01:42:24.515Z,8.61
2022-11-14T01:45:50.756Z,8.62
2022-11-14T01:49:10.732Z,8.62
2022-11-14T01:52:27.435Z,8.54
2022-11-14T01:55:32.377Z,8.54
2022-11-14T01:58:40.156Z,8.50
2022-11-14T02:01:50.530Z,8.46
2022-11-14T02:05:09.339Z,8.40
2022-11-14T02:08:14.877Z,8.41
2022-11-14T02:11:19.675Z,8.36
2022-11-14T02:14:24.253Z,8.39
2022-11-14T02:17:30.858Z,8.36
2022-11-14T02:20:43.366Z,8.35
2022-11-14T02:23:48.505Z,8.25
2022-11-14T02:26:53.542Z,8.32
2022-11-14T02:30:11.832Z,8.12
2022-11-14T02:33:17.589Z,8.31
2022-11-14T02:36:22.359Z,8.28
2022-11-14T02:39:27.371Z,8.23
2022-11-14T02:42:32.641Z,8.24
2022-11-14T02:45:37.843Z,8.25
2022-11-14T02:48:42.782Z,8.20
2022-11-14T02:51:47.347Z,8.28
2022-11-14T02:54:54.581Z,8.28
2022-11-14T02:57:59.434Z,8.29
2022-11-14T03:01:20.199Z,8.31
2022-11-14T03:04:26.372Z,8.26
2022-11-14T03:07:32.741Z,8.12
2022-11-14T03:10:37.800Z,8.26
2022-11-14T03:13:42.724Z,8.21
2022-11-14T03:16:47.278Z,8.12
2022-11-14T03:19:51.882Z,8.16
2022-11-14T03:22:56.863Z,8.13
2022-11-14T03:26:02.962Z,8.10
2022-11-14T03:29:08.030Z,7.94
2022-11-14T03:32:12.686Z,8.01
2022-11-14T03:35:17.382Z,8.06
2022-11-14T03:38:24.667Z,8.01
2022-11-14T03:41:29.227Z,8.04
2022-11-14T03:44:34.120Z,8.04
2022-11-14T03:47:38.997Z,7.99
2022-11-14T03:50:43.947Z,7.97
2022-11-14T03:53:48.510Z,7.96
2022-11-14T03:56:53.254Z,7.81
2022-11-14T03:59:57.839Z,7.90
2022-11-14T04:03:02.743Z,7.86
2022-11-14T04:06:07.699Z,7.80
2022-11-14T04:09:12.690Z,7.79
2022-11-14T04:12:17.674Z,7.74
2022-11-14T04:15:22.303Z,7.78
2022-11-14T04:18:27.868Z,7.70
2022-11-14T04:21:33.052Z,7.72
2022-11-14T04:24:37.791Z,7.68
2022-11-14T04:27:43.497Z,7.65
2022-11-14T04:30:48.418Z,7.56
2022-11-14T04:33:53.222Z,7.60
2022-11-14T04:36:57.758Z,7.52
2022-11-14T04:40:02.944Z,7.55
2022-11-14T04:43:07.936Z,7.55
2022-11-14T04:46:12.804Z,7.50
2022-11-14T04:49:17.567Z,7.51
2022-11-14T04:52:23.023Z,7.50
2022-11-14T04:55:27.776Z,7.44
2022-11-14T04:58:33.263Z,7.49
2022-11-14T05:01:38.418Z,7.46
2022-11-14T05:04:44.525Z,7.42
2022-11-14T05:07:49.511Z,7.27
2022-11-14T05:10:54.099Z,7.29
2022-11-14T05:13:58.621Z,7.30
2022-11-14T05:17:03.437Z,7.22
2022-11-14T05:20:08.748Z,7.14
2022-11-14T05:23:21.688Z,7.25
2022-11-14T05:26:26.424Z,7.25
2022-11-14T05:29:31.236Z,7.22
2022-11-14T05:32:36.030Z,7.23
2022-11-14T05:35:40.815Z,7.25
2022-11-14T05:38:45.702Z,7.27
2022-11-14T05:41:50.357Z,7.31
2022-11-14T05:44:54.802Z,7.27
2022-11-14T05:47:59.699Z,7.32
2022-11-14T05:51:06.229Z,7.35
2022-11-14T05:54:10.773Z,7.35
2022-11-14T05:57:15.889Z,7.26
2022-11-14T06:00:20.707Z,7.34
2022-11-14T06:03:25.510Z,7.29
2022-11-14T06:06:30.276Z,7.37
2022-11-14T06:09:35.337Z,7.35
2022-11-14T06:12:40.712Z,7.33
2022-11-14T06:15:45.626Z,7.26
2022-11-14T06:18:53.289Z,7.27
2022-11-14T06:21:57.973Z,7.36
2022-11-14T06:25:03.229Z,7.41
2022-11-14T06:28:07.679Z,7.42
2022-11-14T06:31:13.262Z,7.41
2022-11-14T06:34:17.813Z,7.44
2022-11-14T06:37:22.835Z,7.46
2022-11-14T06:40:27.786Z,7.48
2022-11-14T06:43:37.118Z,7.38
2022-11-14T06:46:41.606Z,7.52
2022-11-14T06:49:46.230Z,7.56
2022-11-14T06:52:50.877Z,7.58
2022-11-14T06:55:58.041Z,7.60
2022-11-14T06:59:03.622Z,7.71
2022-11-14T07:02:15.392Z,7.74
2022-11-14T07:05:22.340Z,7.77
2022-11-14T07:08:27.393Z,7.90
2022-11-14T07:11:32.230Z,7.94
2022-11-14T07:14:37.231Z,8.02
2022-11-14T07:17:42.033Z,8.08
2022-11-14T07:20:47.549Z,8.12
2022-11-14T07:23:52.340Z,8.22
2022-11-14T07:26:56.926Z,8.25
2022-11-14T07:30:01.833Z,8.33
2022-11-14T07:33:06.764Z,8.36
2022-11-14T07:36:13.876Z,8.39
2022-11-14T07:39:18.626Z,8.51
2022-11-14T07:42:23.314Z,8.53
2022-11-14T07:45:29.024Z,8.60
2022-11-14T07:48:34.779Z,8.67
2022-11-14T07:51:39.584Z,8.70
2022-11-14T07:54:44.692Z,8.75
2022-11-14T07:57:53.292Z,8.78
2022-11-14T08:01:02.902Z,8.88
2022-11-14T08:04:07.819Z,8.88
2022-11-14T08:07:12.837Z,8.96
2022-11-14T08:10:18.226Z,9.02
2022-11-14T08:13:32.237Z,9.08
2022-11-14T08:16:37.948Z,9.14
2022-11-14T08:19:42.988Z,9.23
2022-11-14T08:22:47.964Z,9.23
2022-11-14T08:25:53.104Z,9.33
2022-11-14T08:28:57.931Z,9.39
2022-11-14T08:32:02.778Z,9.45
2022-11-14T08:35:07.926Z,9.54
2022-11-14T08:38:12.768Z,9.65
2022-11-14T08:41:18.204Z,9.74
2022-11-14T08:44:23.499Z,9.87
2022-11-14T08:47:28.007Z,9.87
2022-11-14T08:50:32.735Z,9.97
2022-11-14T08:53:37.774Z,10.14
2022-11-14T08:56:42.504Z,10.25
2022-11-14T08:59:47.533Z,10.34
2022-11-14T09:02:51.930Z,10.41
2022-11-14T09:05:56.512Z,10.52
2022-11-14T09:09:01.379Z,10.62
2022-11-14T09:12:06.417Z,10.61
2022-11-14T09:15:11.950Z,10.77
2022-11-14T09:18:16.404Z,10.77
2022-11-14T09:21:21.300Z,10.87
2022-11-14T09:24:26.287Z,11.05
2022-11-14T09:27:30.817Z,11.14
2022-11-14T09:30:37.215Z,11.22
2022-11-14T09:33:42.021Z,11.32
2022-11-14T09:36:47.241Z,11.38
2022-11-14T09:39:52.010Z,11.47
2022-11-14T09:43:12.583Z,11.50
2022-11-14T09:46:26.263Z,11.63
2022-11-14T09:49:36.288Z,11.66
2022-11-14T09:52:46.244Z,11.82
2022-11-14T09:55:51.034Z,11.77
2022-11-14T09:58:56.574Z,11.84
2022-11-14T10:02:41.294Z,11.91
2022-11-14T10:05:55.196Z,11.97
2022-11-14T10:09:27.446Z,12.00
2022-11-14T10:12:38.005Z,12.08
2022-11-14T10:15:59.526Z,12.03
2022-11-14T10:19:21.049Z,12.18
2022-11-14T10:23:02.545Z,12.26
2022-11-14T10:26:16.236Z,12.45
2022-11-14T10:29:36.804Z,12.51
2022-11-14T10:32:56.720Z,12.66
2022-11-14T10:36:11.961Z,12.70
2022-11-14T10:39:22.339Z,12.87
2022-11-14T10:42:34.877Z,13.01
2022-11-14T10:45:43.830Z,13.03
2022-11-14T10:48:50.688Z,13.25
2022-11-14T10:52:00.260Z,13.25
2022-11-14T10:55:15.301Z,13.40
2022-11-14T10:58:21.042Z,13.53
2022-11-14T11:01:36.648Z,13.59
2022-11-14T11:04:43.376Z,13.68
2022-11-14T11:08:36.168Z,13.85
2022-11-14T11:11:32.855Z,13.96
2022-11-14T11:14:37.641Z,14.14
2022-11-14T11:18:06.380Z,14.22
2022-11-14T11:21:13.191Z,14.34
2022-11-14T11:24:35.069Z,14.44
2022-11-14T11:27:39.426Z,14.59
2022-11-14T11:31:07.696Z,14.56
2022-11-14T11:34:12.422Z,14.74
2022-11-14T11:37:40.352Z,14.66
2022-11-14T11:40:48.546Z,15.02
2022-11-14T11:44:00.826Z,15.01
2022-11-14T11:47:10.220Z,15.19
2022-11-14T11:50:17.131Z,15.30
2022-11-14T11:53:41.099Z,15.33
2022-11-14T11:56:48.352Z,15.50
2022-11-14T11:59:59.541Z,15.55
2022-11-14T12:03:05.680Z,15.66
2022-11-14T12:06:10.827Z,15.69
2022-11-14T12:09:21.949Z,15.76
2022-11-14T12:12:36.258Z,15.98
2022-11-14T12:15:52.967Z,15.99
2022-11-14T12:19:31.518Z,16.10
2022-11-14T12:22:46.202Z,16.06
2022-11-14T12:26:15.301Z,16.16
2022-11-14T12:29:35.908Z,16.43
2022-11-14T12:32:53.884Z,16.38
2022-11-14T12:36:00.824Z,16.59
2022-11-14T12:39:05.704Z,16.61
2022-11-14T12:42:15.784Z,16.82
2022-11-14T12:45:42.426Z,16.83
2022-11-14T12:48:47.206Z,16.97
2022-11-14T12:51:51.940Z,17.14
2022-11-14T12:54:56.342Z,17.30
2022-11-14T12:58:01.033Z,17.44
2022-11-14T13:01:20.682Z,17.51
2022-11-14T13:04:34.661Z,17.74
2022-11-14T13:07:51.567Z,17.75
2022-11-14T13:10:56.209Z,18.09
2022-11-14T13:14:20.665Z,18.22
2022-11-14T13:17:45.463Z,18.44
2022-11-14T13:21:24.132Z,19.21
2022-11-14T13:25:03.304Z,22.27
2022-11-14T13:28:36.509Z,25.49
2022-11-14T13:31:49.541Z,25.93
2022-11-14T13:34:59.865Z,25.26
2022-11-14T13:38:25.426Z,24.48
2022-11-14T13:41:46.627Z,23.66
2022-11-14T13:45:11.825Z,22.79
2022-11-14T13:48:37.233Z,22.09
2022-11-14T13:51:43.952Z,21.56
2022-11-14T13:54:49.866Z,21.11
2022-11-14T13:58:25.428Z,20.65
2022-11-14T14:01:30.390Z,20.28
2022-11-14T14:04:53.662Z,19.90
2022-11-14T14:08:19.719Z,19.61
2022-11-14T14:11:46.197Z,19.32
2022-11-14T14:14:51.203Z,19.10
2022-11-14T14:18:18.413Z,18.82
2022-11-14T14:21:57.205Z,18.45
2022-11-14T14:25:14.592Z,18.31
2022-11-14T14:28:30.572Z,18.08
2022-11-14T14:31:39.819Z,17.97
2022-11-14T14:34:44.968Z,17.76
2022-11-14T14:37:54.132Z,17.62
2022-11-14T14:40:58.726Z,17.54
2022-11-14T14:44:03.312Z,17.27
2022-11-14T14:47:29.929Z,17.24
2022-11-14T14:50:49.234Z,17.14
2022-11-14T14:53:54.122Z,17.10
2022-11-14T14:57:02.889Z,17.00
2022-11-14T15:00:18.306Z,16.82
2022-11-14T15:03:23.729Z,16.84
2022-11-14T15:06:32.400Z,16.80
2022-11-14T15:09:37.095Z,16.72
2022-11-14T15:12:42.496Z,16.62
2022-11-14T15:15:47.039Z,16.64
2022-11-14T15:18:55.809Z,16.51
2022-11-14T15:22:21.263Z,16.48
2022-11-14T15:25:27.145Z,16.47
2022-11-14T15:28:32.400Z,16.44
2022-11-14T15:31:37.545Z,16.43
2022-11-14T15:34:42.275Z,16.33
2022-11-14T15:41:36.396Z,16.21
2022-11-14T15:44:43.554Z,16.19
2022-11-14T15:47:50.769Z,16.15
2022-11-14T15:50:56.065Z,16.13
2022-11-14T15:54:01.067Z,16.11
2022-11-14T15:57:14.618Z,16.00
2022-11-14T16:00:19.964Z,16.03
2022-11-14T16:03:25.208Z,15.98
2022-11-14T16:06:31.465Z,15.97
2022-11-14T16:09:36.711Z,15.93
2022-11-14T16:12:41.712Z,15.86
2022-11-14T16:15:46.815Z,15.85
2022-11-14T16:18:52.777Z,15.79
2022-11-14T16:22:02.596Z,15.80
2022-11-14T16:25:17.091Z,15.66
2022-11-14T16:28:21.867Z,15.65
2022-11-14T16:31:26.913Z,15.65
2022-11-14T16:34:32.107Z,15.58
2022-11-14T16:37:36.865Z,15.54
2022-11-14T16:40:44.451Z,15.49
2022-11-14T16:43:49.023Z,15.43
2022-11-14T16:46:53.736Z,15.34
2022-11-14T16:50:01.332Z,15.32
2022-11-14T16:53:06.227Z,15.24
2022-11-14T16:56:12.763Z,15.23
2022-11-14T16:59:17.602Z,15.18
2022-11-14T17:02:22.691Z,15.14
2022-11-14T17:05:28.107Z,15.07
2022-11-14T17:08:33.225Z,15.01
2022-11-14T17:11:38.895Z,15.05
2022-11-14T17:14:44.076Z,14.97
2022-11-14T17:17:50.306Z,14.93
2022-11-14T17:20:55.317Z,14.87
2022-11-14T17:24:03.992Z,14.89
2022-11-14T17:27:09.364Z,14.83
2022-11-14T17:30:14.484Z,14.76
2022-11-14T17:33:19.148Z,14.76
2022-11-14T17:36:26.344Z,14.76
2022-11-14T17:39:31.160Z,14.77
2022-11-14T17:42:35.887Z,14.71
2022-11-14T17:45:41.414Z,14.70
2022-11-14T17:48:46.860Z,14.68
2022-11-14T17:51:51.481Z,14.66
2022-11-14T17:54:56.408Z,14.60
2022-11-14T17:58:01.271Z,14.61
2022-11-14T18:01:13.061Z,14.55
2022-11-14T18:04:18.235Z,14.48
2022-11-14T18:07:22.931Z,14.47
2022-11-14T18:10:28.040Z,14.45
2022-11-14T18:13:33.560Z,14.46
2022-11-14T18:17:05.343Z,14.37
2022-11-14T18:20:03.380Z,14.29
2022-11-14T18:23:08.084Z,14.24
2022-11-14T18:26:16.989Z,14.20
2022-11-14T18:29:22.040Z,14.22
2022-11-14T18:32:26.876Z,14.12
2022-11-14T18:35:31.706Z,14.14
2022-11-14T18:38:36.513Z,14.15
2022-11-14T18:41:41.752Z,14.04
2022-11-14T18:44:46.424Z,13.99
2022-11-14T18:47:51.325Z,13.89
2022-11-14T18:51:04.728Z,13.91
2022-11-14T18:54:14.424Z,13.73
2022-11-14T18:57:18.956Z,13.77
2022-11-14T19:00:23.832Z,13.84
2022-11-14T19:03:29.882Z,13.82
2022-11-14T19:06:36.977Z,13.79
2022-11-14T19:09:41.469Z,13.72
2022-11-14T19:12:49.314Z,13.65
2022-11-14T19:15:54.104Z,13.64
2022-11-14T19:18:59.306Z,13.62
2022-11-14T19:22:04.179Z,13.55
2022-11-14T19:25:09.362Z,13.48
2022-11-14T19:28:13.815Z,13.49
2022-11-14T19:31:19.671Z,13.41
2022-11-14T19:34:24.887Z,13.22
2022-11-14T19:37:29.428Z,13.35
2022-11-14T19:40:34.083Z,13.31
2022-11-14T19:43:39.856Z,13.19
2022-11-14T19:46:47.769Z,13.10
2022-11-14T19:49:53.445Z,13.22
2022-11-14T19:52:58.042Z,13.16
2022-11-14T19:56:14.273Z,13.11
2022-11-14T19:59:23.080Z,13.08
2022-11-14T20:02:29.552Z,13.11
2022-11-14T20:05:34.154Z,12.99
2022-11-14T20:08:38.721Z,13.01
2022-11-14T20:11:43.680Z,12.92
2022-11-14T20:14:48.610Z,12.95
2022-11-14T20:17:53.673Z,12.89
2022-11-14T20:21:03.111Z,12.88
2022-11-14T20:24:11.187Z,12.89
2022-11-14T20:27:15.977Z,12.83
2022-11-14T20:30:21.055Z,12.74
2022-11-14T20:33:26.320Z,12.75
2022-11-14T20:36:49.922Z,12.72
2022-11-14T20:39:55.874Z,12.67
2022-11-14T20:43:00.891Z,12.63
2022-11-14T20:46:08.044Z,12.62
2022-11-14T20:49:12.962Z,12.60
2022-11-14T20:52:18.774Z,12.57
2022-11-14T20:55:23.622Z,12.48
2022-11-14T20:58:28.692Z,12.43
2022-11-14T21:01:34.650Z,12.51
2022-11-14T21:04:41.374Z,12.47
2022-11-14T21:07:46.027Z,12.46
2022-11-14T21:10:58.566Z,12.45
2022-11-14T21:14:04.645Z,12.44
2022-11-14T21:17:09.458Z,12.39
2022-11-14T21:20:14.480Z,12.46
2022-11-14T21:23:19.603Z,12.45
2022-11-14T21:26:31.992Z,12.42
2022-11-14T21:29:36.819Z,12.34
2022-11-14T21:32:41.607Z,12.27
2022-11-14T21:35:46.703Z,12.36
2022-11-14T21:38:51.662Z,12.35
2022-11-14T21:41:55.999Z,12.33
2022-11-14T21:45:00.733Z,12.27
2022-11-14T21:48:05.556Z,12.21
2022-11-14T21:51:18.692Z,12.21
2022-11-14T21:54:23.037Z,12.18
2022-11-14T21:57:27.931Z,12.11
2022-11-14T22:00:32.453Z,12.03
2022-11-14T22:03:56.370Z,12.07
2022-11-14T22:07:06.586Z,12.02
2022-11-14T22:10:11.529Z,11.99
2022-11-14T22:13:16.403Z,11.97
2022-11-14T22:16:21.070Z,11.93
2022-11-14T22:19:25.377Z,11.92
2022-11-14T22:22:29.978Z,11.81
2022-11-14T22:25:34.863Z,11.88
2022-11-14T22:28:40.125Z,11.86
2022-11-14T22:31:45.249Z,11.84
2022-11-14T22:34:49.726Z,11.83
2022-11-14T22:37:54.391Z,11.82
2022-11-14T22:40:59.753Z,11.79
2022-11-14T22:44:04.717Z,11.74
2022-11-14T22:47:09.320Z,11.73
2022-11-14T22:50:14.351Z,11.73
2022-11-14T22:53:18.693Z,11.70
2022-11-14T22:56:28.436Z,11.70
2022-11-14T22:59:33.525Z,11.66
2022-11-14T23:02:38.194Z,11.65
2022-11-14T23:05:42.935Z,11.62
2022-11-14T23:08:47.870Z,11.56
2022-11-14T23:11:52.776Z,11.56
2022-11-14T23:14:57.630Z,11.58
2022-11-14T23:18:02.327Z,11.48
2022-11-14T23:21:24.871Z,11.44
2022-11-14T23:24:29.604Z,11.45
2022-11-14T23:27:34.301Z,11.35
2022-11-14T23:30:39.220Z,11.35
2022-11-14T23:33:44.259Z,11.26
2022-11-14T23:36:48.974Z,11.21
2022-11-14T23:39:53.537Z,11.24
2022-11-14T23:42:58.225Z,11.22
2022-11-14T23:46:02.908Z,11.15
2022-11-14T23:49:07.711Z,11.13
2022-11-14T23:52:12.606Z,11.04
2022-11-14T23:55:17.344Z,11.00
2022-11-14T23:58:23.009Z,10.98
